sensor_id;sensor_type;location;lat;lon;timestamp;temperature;humidity
15160;DHT22;7680;48.800;9.680;2024-02-23T00:03:07;6.50;99.90
15160;DHT22;7680;48.800;9.680;2024-02-23T00:08:12;6.40;99.90
15160;DHT22;7680;48.800;9.680;2024-02-23T00:13:15;6.40;99.90
15160;DHT22;7680;48.800;9.680;2024-02-23T00:18:20;6.30;99.90
15160;DHT22;7680;48.800;9.680;2024-02-23T00:23:23;6.20;99.90
15160;DHT22;7680;48.800;9.680;2024-02-23T00:28:26;6.10;99.90
15160;DHT22;7680;48.800;9.680;2024-02-23T00:33:31;6.10;99.90
15160;DHT22;7680;48.800;9.680;2024-02-23T00:38:35;6.10;99.90
15160;DHT22;7680;48.800;9.680;2024-02-23T00:43:38;6.10;99.90
15160;DHT22;7680;48.800;9.680;2024-02-23T00:48:43;6.00;99.90
15160;DHT22;7680;48.800;9.680;2024-02-23T00:53:46;6.00;99.90
15160;DHT22;7680;48.800;9.680;2024-02-23T00:58:50;6.00;99.90
15160;DHT22;7680;48.800;9.680;2024-02-23T01:03:55;6.00;99.90
15160;DHT22;7680;48.800;9.680;2024-02-23T01:08:58;6.00;99.90
15160;DHT22;7680;48.800;9.680;2024-02-23T01:14:01;6.00;99.90
15160;DHT22;7680;48.800;9.680;2024-02-23T01:19:05;5.90;99.90
15160;DHT22;7680;48.800;9.680;2024-02-23T01:24:09;5.90;99.90
15160;DHT22;7680;48.800;9.680;2024-02-23T01:29:12;5.90;99.90
15160;DHT22;7680;48.800;9.680;2024-02-23T01:34:17;5.90;99.90
15160;DHT22;7680;48.800;9.680;2024-02-23T01:39:20;5.90;99.90
15160;DHT22;7680;48.800;9.680;2024-02-23T01:44:23;5.90;99.90
15160;DHT22;7680;48.800;9.680;2024-02-23T01:49:28;5.90;99.90
15160;DHT22;7680;48.800;9.680;2024-02-23T01:54:34;5.90;99.90
15160;DHT22;7680;48.800;9.680;2024-02-23T01:59:38;5.90;99.90
15160;DHT22;7680;48.800;9.680;2024-02-23T02:04:44;5.90;99.90
15160;DHT22;7680;48.800;9.680;2024-02-23T02:09:47;6.00;99.90
15160;DHT22;7680;48.800;9.680;2024-02-23T02:14:54;5.90;99.90
15160;DHT22;7680;48.800;9.680;2024-02-23T02:19:59;5.80;99.90
15160;DHT22;7680;48.800;9.680;2024-02-23T02:25:07;5.80;99.90
15160;DHT22;7680;48.800;9.680;2024-02-23T02:30:11;5.80;99.90
15160;DHT22;7680;48.800;9.680;2024-02-23T02:35:16;5.70;99.90
15160;DHT22;7680;48.800;9.680;2024-02-23T02:40:19;5.70;99.90
15160;DHT22;7680;48.800;9.680;2024-02-23T02:45:22;5.70;99.90
15160;DHT22;7680;48.800;9.680;2024-02-23T02:50:27;5.60;99.90
15160;DHT22;7680;48.800;9.680;2024-02-23T02:55:30;5.60;99.90
15160;DHT22;7680;48.800;9.680;2024-02-23T03:00:34;5.60;99.90
15160;DHT22;7680;48.800;9.680;2024-02-23T03:05:38;5.70;99.90
15160;DHT22;7680;48.800;9.680;2024-02-23T03:10:42;5.70;99.90
15160;DHT22;7680;48.800;9.680;2024-02-23T03:15:45;5.60;99.90
15160;DHT22;7680;48.800;9.680;2024-02-23T03:20:49;5.50;99.90
15160;DHT22;7680;48.800;9.680;2024-02-23T03:25:52;5.30;99.90
15160;DHT22;7680;48.800;9.680;2024-02-23T03:30:56;5.20;99.90
15160;DHT22;7680;48.800;9.680;2024-02-23T03:36:00;5.10;99.90
15160;DHT22;7680;48.800;9.680;2024-02-23T03:41:05;5.10;99.90
15160;DHT22;7680;48.800;9.680;2024-02-23T03:46:09;5.00;99.90
15160;DHT22;7680;48.800;9.680;2024-02-23T03:51:14;5.10;99.90
15160;DHT22;7680;48.800;9.680;2024-02-23T03:56:18;5.00;99.90
15160;DHT22;7680;48.800;9.680;2024-02-23T04:01:21;5.00;99.90
15160;DHT22;7680;48.800;9.680;2024-02-23T04:06:25;4.90;99.90
15160;DHT22;7680;48.800;9.680;2024-02-23T04:11:29;4.90;99.90
15160;DHT22;7680;48.800;9.680;2024-02-23T04:16:32;4.80;99.90
15160;DHT22;7680;48.800;9.680;2024-02-23T04:21:36;4.80;99.90
15160;DHT22;7680;48.800;9.680;2024-02-23T04:26:39;4.90;99.90
15160;DHT22;7680;48.800;9.680;2024-02-23T04:31:43;4.80;99.90
15160;DHT22;7680;48.800;9.680;2024-02-23T04:36:47;4.90;99.90
15160;DHT22;7680;48.800;9.680;2024-02-23T04:41:50;4.70;99.90
15160;DHT22;7680;48.800;9.680;2024-02-23T04:46:53;4.80;99.90
15160;DHT22;7680;48.800;9.680;2024-02-23T04:51:58;4.70;99.90
15160;DHT22;7680;48.800;9.680;2024-02-23T04:57:01;4.80;99.90
15160;DHT22;7680;48.800;9.680;2024-02-23T05:02:04;4.70;99.90
15160;DHT22;7680;48.800;9.680;2024-02-23T05:07:09;4.70;99.90
15160;DHT22;7680;48.800;9.680;2024-02-23T05:12:12;4.60;99.90
15160;DHT22;7680;48.800;9.680;2024-02-23T05:17:15;4.60;99.90
15160;DHT22;7680;48.800;9.680;2024-02-23T05:22:20;4.60;99.90
15160;DHT22;7680;48.800;9.680;2024-02-23T05:27:23;4.60;99.90
15160;DHT22;7680;48.800;9.680;2024-02-23T05:32:28;4.50;99.90
15160;DHT22;7680;48.800;9.680;2024-02-23T05:37:33;4.50;99.90
15160;DHT22;7680;48.800;9.680;2024-02-23T05:42:36;4.40;99.90
15160;DHT22;7680;48.800;9.680;2024-02-23T05:47:41;4.40;99.90
15160;DHT22;7680;48.800;9.680;2024-02-23T05:52:50;4.40;99.90
15160;DHT22;7680;48.800;9.680;2024-02-23T05:57:54;4.40;99.90
15160;DHT22;7680;48.800;9.680;2024-02-23T06:02:58;4.40;99.90
15160;DHT22;7680;48.800;9.680;2024-02-23T06:08:02;4.30;99.90
15160;DHT22;7680;48.800;9.680;2024-02-23T06:13:06;4.20;99.90
15160;DHT22;7680;48.800;9.680;2024-02-23T06:18:09;4.20;99.90
15160;DHT22;7680;48.800;9.680;2024-02-23T06:23:13;4.20;99.90
15160;DHT22;7680;48.800;9.680;2024-02-23T06:28:16;4.20;99.90
15160;DHT22;7680;48.800;9.680;2024-02-23T06:33:19;4.20;99.90
15160;DHT22;7680;48.800;9.680;2024-02-23T06:38:24;4.20;99.90
15160;DHT22;7680;48.800;9.680;2024-02-23T06:43:27;4.10;99.90
15160;DHT22;7680;48.800;9.680;2024-02-23T06:48:31;4.20;99.90
15160;DHT22;7680;48.800;9.680;2024-02-23T06:53:36;4.10;99.90
15160;DHT22;7680;48.800;9.680;2024-02-23T06:58:40;4.10;99.90
15160;DHT22;7680;48.800;9.680;2024-02-23T07:03:43;4.20;99.90
15160;DHT22;7680;48.800;9.680;2024-02-23T07:08:48;4.20;99.90
15160;DHT22;7680;48.800;9.680;2024-02-23T07:13:51;4.20;99.90
15160;DHT22;7680;48.800;9.680;2024-02-23T07:18:54;4.20;99.90
15160;DHT22;7680;48.800;9.680;2024-02-23T07:23:59;4.30;99.90
15160;DHT22;7680;48.800;9.680;2024-02-23T07:29:03;4.30;99.90
15160;DHT22;7680;48.800;9.680;2024-02-23T07:34:06;4.10;99.90
15160;DHT22;7680;48.800;9.680;2024-02-23T07:39:12;4.20;99.90
15160;DHT22;7680;48.800;9.680;2024-02-23T07:44:15;4.30;99.90
15160;DHT22;7680;48.800;9.680;2024-02-23T07:49:18;4.40;99.90
15160;DHT22;7680;48.800;9.680;2024-02-23T07:54:23;4.50;99.90
15160;DHT22;7680;48.800;9.680;2024-02-23T07:59:26;4.60;99.90
15160;DHT22;7680;48.800;9.680;2024-02-23T08:04:30;4.70;99.90
15160;DHT22;7680;48.800;9.680;2024-02-23T08:09:35;4.90;99.90
15160;DHT22;7680;48.800;9.680;2024-02-23T08:14:38;5.10;99.90
15160;DHT22;7680;48.800;9.680;2024-02-23T08:19:41;5.20;99.90
15160;DHT22;7680;48.800;9.680;2024-02-23T08:24:46;5.10;99.90
15160;DHT22;7680;48.800;9.680;2024-02-23T08:29:49;5.20;99.90
15160;DHT22;7680;48.800;9.680;2024-02-23T08:34:52;5.30;99.90
15160;DHT22;7680;48.800;9.680;2024-02-23T08:40:02;5.30;99.90
15160;DHT22;7680;48.800;9.680;2024-02-23T08:45:08;5.40;99.90
15160;DHT22;7680;48.800;9.680;2024-02-23T08:50:14;5.40;99.90
15160;DHT22;7680;48.800;9.680;2024-02-23T08:55:18;5.50;99.90
15160;DHT22;7680;48.800;9.680;2024-02-23T09:00:23;5.60;99.90
15160;DHT22;7680;48.800;9.680;2024-02-23T09:05:26;5.70;99.90
15160;DHT22;7680;48.800;9.680;2024-02-23T09:10:30;5.80;99.90
15160;DHT22;7680;48.800;9.680;2024-02-23T09:15:34;5.90;99.90
15160;DHT22;7680;48.800;9.680;2024-02-23T09:20:37;6.00;99.90
15160;DHT22;7680;48.800;9.680;2024-02-23T09:25:41;6.00;99.90
15160;DHT22;7680;48.800;9.680;2024-02-23T09:30:45;6.10;99.90
15160;DHT22;7680;48.800;9.680;2024-02-23T09:35:48;6.20;99.90
15160;DHT22;7680;48.800;9.680;2024-02-23T09:40:53;6.30;99.90
15160;DHT22;7680;48.800;9.680;2024-02-23T09:45:56;6.50;99.90
15160;DHT22;7680;48.800;9.680;2024-02-23T09:51:01;6.50;99.90
15160;DHT22;7680;48.800;9.680;2024-02-23T09:56:08;6.50;99.90
15160;DHT22;7680;48.800;9.680;2024-02-23T10:01:12;6.50;99.90
15160;DHT22;7680;48.800;9.680;2024-02-23T10:06:15;6.60;99.90
15160;DHT22;7680;48.800;9.680;2024-02-23T10:11:20;6.80;99.90
15160;DHT22;7680;48.800;9.680;2024-02-23T10:16:23;6.90;99.90
15160;DHT22;7680;48.800;9.680;2024-02-23T10:21:27;7.00;99.90
15160;DHT22;7680;48.800;9.680;2024-02-23T10:26:31;7.10;99.90
15160;DHT22;7680;48.800;9.680;2024-02-23T10:31:35;7.20;99.90
15160;DHT22;7680;48.800;9.680;2024-02-23T10:36:41;7.40;99.90
15160;DHT22;7680;48.800;9.680;2024-02-23T10:41:57;7.30;99.90
15160;DHT22;7680;48.800;9.680;2024-02-23T10:47:01;7.30;99.90
15160;DHT22;7680;48.800;9.680;2024-02-23T10:52:05;7.40;99.90
15160;DHT22;7680;48.800;9.680;2024-02-23T10:57:11;7.40;99.90
15160;DHT22;7680;48.800;9.680;2024-02-23T11:02:20;7.40;99.90
15160;DHT22;7680;48.800;9.680;2024-02-23T11:07:24;7.60;99.90
15160;DHT22;7680;48.800;9.680;2024-02-23T11:12:31;7.30;99.90
15160;DHT22;7680;48.800;9.680;2024-02-23T11:17:35;7.40;99.90
15160;DHT22;7680;48.800;9.680;2024-02-23T11:22:41;7.40;99.90
15160;DHT22;7680;48.800;9.680;2024-02-23T11:27:49;7.40;99.90
15160;DHT22;7680;48.800;9.680;2024-02-23T11:32:59;7.40;99.90
15160;DHT22;7680;48.800;9.680;2024-02-23T11:38:03;7.40;99.90
15160;DHT22;7680;48.800;9.680;2024-02-23T11:43:10;7.50;99.90
15160;DHT22;7680;48.800;9.680;2024-02-23T11:48:13;7.50;99.90
15160;DHT22;7680;48.800;9.680;2024-02-23T11:53:16;7.40;99.90
15160;DHT22;7680;48.800;9.680;2024-02-23T11:58:22;7.60;99.90
15160;DHT22;7680;48.800;9.680;2024-02-23T12:03:26;7.40;99.90
15160;DHT22;7680;48.800;9.680;2024-02-23T12:08:31;7.40;99.90
15160;DHT22;7680;48.800;9.680;2024-02-23T12:13:41;7.50;99.90
15160;DHT22;7680;48.800;9.680;2024-02-23T12:18:44;7.50;99.90
15160;DHT22;7680;48.800;9.680;2024-02-23T12:23:48;7.80;99.90
15160;DHT22;7680;48.800;9.680;2024-02-23T12:29:00;7.80;99.90
15160;DHT22;7680;48.800;9.680;2024-02-23T12:34:04;7.90;99.90
15160;DHT22;7680;48.800;9.680;2024-02-23T12:39:09;7.70;99.90
15160;DHT22;7680;48.800;9.680;2024-02-23T12:44:14;8.10;99.90
15160;DHT22;7680;48.800;9.680;2024-02-23T12:49:17;8.00;99.90
15160;DHT22;7680;48.800;9.680;2024-02-23T12:54:20;8.10;99.90
15160;DHT22;7680;48.800;9.680;2024-02-23T12:59:24;8.20;99.90
15160;DHT22;7680;48.800;9.680;2024-02-23T13:04:28;8.10;99.90
15160;DHT22;7680;48.800;9.680;2024-02-23T13:09:31;8.20;99.90
15160;DHT22;7680;48.800;9.680;2024-02-23T13:14:35;8.00;99.90
15160;DHT22;7680;48.800;9.680;2024-02-23T13:19:39;8.10;99.90
15160;DHT22;7680;48.800;9.680;2024-02-23T13:24:44;8.20;99.90
15160;DHT22;7680;48.800;9.680;2024-02-23T13:29:48;8.30;99.90
15160;DHT22;7680;48.800;9.680;2024-02-23T13:34:51;8.20;99.90
15160;DHT22;7680;48.800;9.680;2024-02-23T13:39:55;8.10;99.90
15160;DHT22;7680;48.800;9.680;2024-02-23T13:44:59;8.30;99.90
15160;DHT22;7680;48.800;9.680;2024-02-23T13:50:03;8.30;99.90
15160;DHT22;7680;48.800;9.680;2024-02-23T13:55:08;8.30;99.90
15160;DHT22;7680;48.800;9.680;2024-02-23T14:00:14;8.40;99.90
15160;DHT22;7680;48.800;9.680;2024-02-23T14:05:18;8.30;99.90
15160;DHT22;7680;48.800;9.680;2024-02-23T14:10:23;8.40;99.90
15160;DHT22;7680;48.800;9.680;2024-02-23T14:15:28;8.70;99.90
15160;DHT22;7680;48.800;9.680;2024-02-23T14:20:31;8.40;99.90
15160;DHT22;7680;48.800;9.680;2024-02-23T14:25:34;8.50;99.90
15160;DHT22;7680;48.800;9.680;2024-02-23T14:30:39;8.40;99.90
15160;DHT22;7680;48.800;9.680;2024-02-23T14:35:44;8.30;99.90
15160;DHT22;7680;48.800;9.680;2024-02-23T14:40:48;8.20;99.90
15160;DHT22;7680;48.800;9.680;2024-02-23T14:45:52;8.30;99.90
15160;DHT22;7680;48.800;9.680;2024-02-23T14:50:55;8.20;99.90
15160;DHT22;7680;48.800;9.680;2024-02-23T14:56:00;8.20;99.90
15160;DHT22;7680;48.800;9.680;2024-02-23T15:01:05;8.20;99.90
15160;DHT22;7680;48.800;9.680;2024-02-23T15:06:08;8.40;99.90
15160;DHT22;7680;48.800;9.680;2024-02-23T15:11:12;8.20;99.90
15160;DHT22;7680;48.800;9.680;2024-02-23T15:16:17;8.30;99.90
15160;DHT22;7680;48.800;9.680;2024-02-23T15:21:20;8.70;99.90
15160;DHT22;7680;48.800;9.680;2024-02-23T15:26:23;8.40;99.90
15160;DHT22;7680;48.800;9.680;2024-02-23T15:31:28;8.20;99.90
15160;DHT22;7680;48.800;9.680;2024-02-23T15:36:31;8.20;99.90
15160;DHT22;7680;48.800;9.680;2024-02-23T15:41:34;8.20;99.90
15160;DHT22;7680;48.800;9.680;2024-02-23T15:46:39;8.10;99.90
15160;DHT22;7680;48.800;9.680;2024-02-23T15:51:43;8.00;99.90
15160;DHT22;7680;48.800;9.680;2024-02-23T15:56:57;7.90;99.90
15160;DHT22;7680;48.800;9.680;2024-02-23T16:02:02;7.80;99.90
15160;DHT22;7680;48.800;9.680;2024-02-23T16:07:05;7.70;99.90
15160;DHT22;7680;48.800;9.680;2024-02-23T16:12:09;7.90;99.90
15160;DHT22;7680;48.800;9.680;2024-02-23T16:17:13;8.00;99.90
15160;DHT22;7680;48.800;9.680;2024-02-23T16:22:17;8.10;99.90
15160;DHT22;7680;48.800;9.680;2024-02-23T16:27:20;7.80;99.90
15160;DHT22;7680;48.800;9.680;2024-02-23T16:32:24;7.90;99.90
15160;DHT22;7680;48.800;9.680;2024-02-23T16:37:28;7.50;99.90
15160;DHT22;7680;48.800;9.680;2024-02-23T16:42:31;7.40;99.90
15160;DHT22;7680;48.800;9.680;2024-02-23T16:47:36;7.40;99.90
15160;DHT22;7680;48.800;9.680;2024-02-23T16:52:39;7.60;99.90
15160;DHT22;7680;48.800;9.680;2024-02-23T16:57:43;7.40;99.90
15160;DHT22;7680;48.800;9.680;2024-02-23T17:02:47;7.20;99.90
15160;DHT22;7680;48.800;9.680;2024-02-23T17:07:50;7.00;99.90
15160;DHT22;7680;48.800;9.680;2024-02-23T17:12:53;6.90;99.90
15160;DHT22;7680;48.800;9.680;2024-02-23T17:17:59;6.80;99.90
15160;DHT22;7680;48.800;9.680;2024-02-23T17:23:02;6.90;99.90
15160;DHT22;7680;48.800;9.680;2024-02-23T17:28:06;6.80;99.90
15160;DHT22;7680;48.800;9.680;2024-02-23T17:33:11;6.70;99.90
15160;DHT22;7680;48.800;9.680;2024-02-23T17:38:14;6.70;99.90
15160;DHT22;7680;48.800;9.680;2024-02-23T17:43:18;6.80;99.90
15160;DHT22;7680;48.800;9.680;2024-02-23T17:48:22;6.90;99.90
15160;DHT22;7680;48.800;9.680;2024-02-23T17:53:26;6.60;99.90
15160;DHT22;7680;48.800;9.680;2024-02-23T17:58:29;6.40;99.90
15160;DHT22;7680;48.800;9.680;2024-02-23T18:03:33;6.20;99.90
15160;DHT22;7680;48.800;9.680;2024-02-23T18:08:37;6.10;99.90
15160;DHT22;7680;48.800;9.680;2024-02-23T18:13:41;6.00;99.90
15160;DHT22;7680;48.800;9.680;2024-02-23T18:18:45;6.00;99.90
15160;DHT22;7680;48.800;9.680;2024-02-23T18:23:49;5.90;99.90
15160;DHT22;7680;48.800;9.680;2024-02-23T18:28:53;5.80;99.90
15160;DHT22;7680;48.800;9.680;2024-02-23T18:33:57;5.60;99.90
15160;DHT22;7680;48.800;9.680;2024-02-23T18:39:01;5.40;99.90
15160;DHT22;7680;48.800;9.680;2024-02-23T18:44:04;5.40;99.90
15160;DHT22;7680;48.800;9.680;2024-02-23T18:49:09;5.30;99.90
15160;DHT22;7680;48.800;9.680;2024-02-23T18:54:12;5.20;99.90
15160;DHT22;7680;48.800;9.680;2024-02-23T18:59:15;4.90;99.90
15160;DHT22;7680;48.800;9.680;2024-02-23T19:04:20;4.70;99.90
15160;DHT22;7680;48.800;9.680;2024-02-23T19:09:23;4.50;99.90
15160;DHT22;7680;48.800;9.680;2024-02-23T19:14:26;4.30;99.90
15160;DHT22;7680;48.800;9.680;2024-02-23T19:19:32;4.10;99.90
15160;DHT22;7680;48.800;9.680;2024-02-23T19:24:36;4.20;99.90
15160;DHT22;7680;48.800;9.680;2024-02-23T19:29:40;4.10;99.90
15160;DHT22;7680;48.800;9.680;2024-02-23T19:34:51;4.00;99.90
15160;DHT22;7680;48.800;9.680;2024-02-23T19:39:54;3.90;99.90
15160;DHT22;7680;48.800;9.680;2024-02-23T19:44:57;3.70;99.90
15160;DHT22;7680;48.800;9.680;2024-02-23T19:50:06;3.70;99.90
15160;DHT22;7680;48.800;9.680;2024-02-23T19:55:10;3.50;99.90
15160;DHT22;7680;48.800;9.680;2024-02-23T20:00:14;3.50;99.90
15160;DHT22;7680;48.800;9.680;2024-02-23T20:05:19;3.40;99.90
15160;DHT22;7680;48.800;9.680;2024-02-23T20:10:25;3.10;99.90
15160;DHT22;7680;48.800;9.680;2024-02-23T20:15:28;3.00;99.90
15160;DHT22;7680;48.800;9.680;2024-02-23T20:20:33;2.80;99.90
15160;DHT22;7680;48.800;9.680;2024-02-23T20:25:40;2.80;99.90
15160;DHT22;7680;48.800;9.680;2024-02-23T20:30:44;2.60;99.90
15160;DHT22;7680;48.800;9.680;2024-02-23T20:35:48;2.60;99.90
15160;DHT22;7680;48.800;9.680;2024-02-23T20:40:52;2.60;99.90
15160;DHT22;7680;48.800;9.680;2024-02-23T20:45:55;2.60;99.90
15160;DHT22;7680;48.800;9.680;2024-02-23T20:51:01;2.40;99.90
15160;DHT22;7680;48.800;9.680;2024-02-23T20:56:09;2.30;99.90
15160;DHT22;7680;48.800;9.680;2024-02-23T21:01:13;2.30;99.90
15160;DHT22;7680;48.800;9.680;2024-02-23T21:06:19;2.40;99.90
15160;DHT22;7680;48.800;9.680;2024-02-23T21:11:23;2.30;99.90
15160;DHT22;7680;48.800;9.680;2024-02-23T21:16:27;2.30;99.90
15160;DHT22;7680;48.800;9.680;2024-02-23T21:21:31;2.20;99.90
15160;DHT22;7680;48.800;9.680;2024-02-23T21:26:35;2.00;99.90
15160;DHT22;7680;48.800;9.680;2024-02-23T21:31:38;2.00;99.90
15160;DHT22;7680;48.800;9.680;2024-02-23T21:36:42;2.00;99.90
15160;DHT22;7680;48.800;9.680;2024-02-23T21:41:46;1.90;99.90
15160;DHT22;7680;48.800;9.680;2024-02-23T21:46:49;1.60;99.90
15160;DHT22;7680;48.800;9.680;2024-02-23T21:51:53;1.60;99.90
15160;DHT22;7680;48.800;9.680;2024-02-23T21:56:56;1.60;99.90
15160;DHT22;7680;48.800;9.680;2024-02-23T22:02:02;1.50;99.90
15160;DHT22;7680;48.800;9.680;2024-02-23T22:07:08;1.50;99.90
15160;DHT22;7680;48.800;9.680;2024-02-23T22:12:15;1.30;99.90
15160;DHT22;7680;48.800;9.680;2024-02-23T22:17:20;1.50;99.90
15160;DHT22;7680;48.800;9.680;2024-02-23T22:22:25;1.60;99.90
15160;DHT22;7680;48.800;9.680;2024-02-23T22:27:29;1.50;99.90
15160;DHT22;7680;48.800;9.680;2024-02-23T22:32:32;1.40;99.90
15160;DHT22;7680;48.800;9.680;2024-02-23T22:37:37;1.30;99.90
15160;DHT22;7680;48.800;9.680;2024-02-23T22:42:40;1.30;99.90
15160;DHT22;7680;48.800;9.680;2024-02-23T22:47:43;1.10;99.90
15160;DHT22;7680;48.800;9.680;2024-02-23T22:52:48;1.10;99.90
15160;DHT22;7680;48.800;9.680;2024-02-23T22:57:52;1.20;99.90
15160;DHT22;7680;48.800;9.680;2024-02-23T23:02:55;1.20;99.90
15160;DHT22;7680;48.800;9.680;2024-02-23T23:08:00;1.00;99.90
15160;DHT22;7680;48.800;9.680;2024-02-23T23:13:04;0.90;99.90
15160;DHT22;7680;48.800;9.680;2024-02-23T23:18:07;0.90;99.90
15160;DHT22;7680;48.800;9.680;2024-02-23T23:23:12;0.90;99.90
15160;DHT22;7680;48.800;9.680;2024-02-23T23:28:15;0.80;99.90
15160;DHT22;7680;48.800;9.680;2024-02-23T23:33:19;0.80;99.90
15160;DHT22;7680;48.800;9.680;2024-02-23T23:38:23;0.60;99.90
15160;DHT22;7680;48.800;9.680;2024-02-23T23:43:27;0.60;99.90
15160;DHT22;7680;48.800;9.680;2024-02-23T23:48:30;0.50;99.90
15160;DHT22;7680;48.800;9.680;2024-02-23T23:53:35;0.60;99.90
15160;DHT22;7680;48.800;9.680;2024-02-23T23:58:38;0.70;99.90
